Time;durP1;ratioP1;P1;durP2;ratioP2;P2;SDS_P1;SDS_P2;PMS_P1;PMS_P2;Temp;Humidity;BMP_temperature;BMP_pressure;BME280_temperature;BME280_humidity;BME280_pressure;Samples;Min_cycle;Max_cycle;Signal;HPM_P1;HPM_P2
2022/01/26 00:00:29;;;;;;;27.23;22.57;;;1.20;54.80;;;;;;20965;6769;116604;-82
2022/01/26 00:05:48;;;;;;;31.97;28.93;;;1.40;54.90;;;;;;20791;6712;305871;-82
2022/01/26 00:08:24;;;;;;;28.50;23.83;;;1.90;53.70;;;;;;20846;6712;116288;-83
2022/01/26 00:10:56;;;;;;;25.23;21.67;;;2.00;53.20;;;;;;20980;6712;120128;-83
2022/01/26 00:13:31;;;;;;;28.77;25.87;;;1.80;53.30;;;;;;20784;6713;309212;-83
2022/01/26 00:16:22;;;;;;;25.27;21.57;;;2.00;53.40;;;;;;20998;6713;117474;-84
2022/01/26 00:18:46;;;;;;;27.23;22.10;;;2.00;53.10;;;;;;20971;6713;117095;-84
2022/01/26 00:21:32;;;;;;;27.53;21.93;;;1.80;53.10;;;;;;20999;6713;118299;-83
2022/01/26 00:29:36;;;;;;;35.50;31.70;;;2.10;51.40;;;;;;19596;7104;293135;-83
2022/01/26 00:41:04;;;;;;;212.87;32.00;;;2.90;48.30;;;;;;20932;6731;116689;-84
2022/01/26 00:43:34;;;;;;;121.27;28.07;;;2.50;48.60;;;;;;20921;6722;118076;-84
2022/01/26 00:46:09;;;;;;;319.43;30.93;;;2.00;49.10;;;;;;20954;6724;117262;-84
2022/01/26 00:48:45;;;;;;;190.50;27.70;;;1.60;49.70;;;;;;20891;6728;117723;-84
2022/01/26 00:51:22;;;;;;;44.90;27.80;;;1.40;50.40;;;;;;20746;6725;292519;-84
2022/01/26 00:54:05;;;;;;;46.30;25.17;;;1.50;51.70;;;;;;20965;6722;117115;-84
2022/01/26 00:56:34;;;;;;;36.60;24.93;;;1.50;51.90;;;;;;20928;6715;119148;-84
2022/01/26 00:59:12;;;;;;;78.53;30.97;;;1.40;52.40;;;;;;20690;6742;335778;-84
2022/01/26 01:01:47;;;;;;;89.60;26.07;;;1.60;53.00;;;;;;21006;6707;118125;-84
2022/01/26 01:04:32;;;;;;;;;;;;;;;;;;;;;
2022/01/26 01:07:01;;;;;;;140.40;25.20;;;1.60;52.80;;;;;;20907;6722;120627;-84
2022/01/26 01:09:34;;;;;;;393.30;31.13;;;1.50;53.10;;;;;;21027;6707;117406;-84
2022/01/26 01:12:10;;;;;;;717.53;41.70;;;1.30;53.90;;;;;;21021;6707;116284;-85
2022/01/26 01:14:46;;;;;;;649.70;42.50;;;1.30;53.30;;;;;;20762;6707;304849;-84
2022/01/26 01:17:25;;;;;;;187.03;28.17;;;1.50;53.00;;;;;;20947;6707;117446;-84
2022/01/26 01:22:51;;;;;;;188.53;27.90;;;1.80;52.70;;;;;;20386;6782;120103;-84
2022/01/26 01:30:55;;;;;;;182.77;29.23;;;2.10;51.80;;;;;;20976;6721;117254;-85
2022/01/26 01:33:43;;;;;;;803.43;43.27;;;2.10;51.80;;;;;;20982;6724;116288;-84
2022/01/26 01:36:05;;;;;;;834.47;47.40;;;1.90;52.60;;;;;;20998;6777;67450;-84
2022/01/26 01:38:39;;;;;;;366.47;38.30;;;1.70;52.90;;;;;;20486;6814;337978;-84
2022/01/26 01:41:11;;;;;;;446.83;33.97;;;1.70;53.30;;;;;;20976;6727;116442;-84
2022/01/26 01:43:47;;;;;;;210.23;33.20;;;1.80;53.30;;;;;;20770;6722;304984;-84
2022/01/26 01:46:22;;;;;;;160.37;28.37;;;2.00;53.60;;;;;;20985;6711;116284;-84
2022/01/26 01:48:59;;;;;;;323.53;39.30;;;1.90;52.90;;;;;;20738;6722;306286;-84
2022/01/26 01:51:40;;;;;;;35.00;31.27;;;2.10;52.40;;;;;;20759;6722;276894;-84
2022/01/26 01:54:17;;;;;;;33.40;25.07;;;2.30;51.00;;;;;;20937;6724;122970;-84
2022/01/26 01:56:54;;;;;;;33.03;29.37;;;2.10;50.80;;;;;;20669;6729;303378;-84
2022/01/26 01:59:26;;;;;;;96.50;32.83;;;2.20;51.40;;;;;;20717;6728;311301;-83
2022/01/26 02:02:06;;;;;;;295.87;30.53;;;2.40;50.80;;;;;;20957;6722;117431;-84
2022/01/26 02:04:39;;;;;;;229.73;35.03;;;2.30;50.80;;;;;;20693;6728;278230;-84
2022/01/26 02:07:14;;;;;;;70.67;24.50;;;2.30;50.80;;;;;;20886;6707;118168;-84
2022/01/26 02:09:50;;;;;;;118.10;23.77;;;2.20;50.90;;;;;;20980;6710;117087;-84
2022/01/26 02:12:27;;;;;;;95.40;20.43;;;1.90;51.50;;;;;;20937;6722;117345;-84
2022/01/26 02:15:11;;;;;;;231.17;25.30;;;1.70;52.10;;;;;;20980;6707;117021;-84
2022/01/26 02:20:50;;;;;;;140.87;22.73;;;1.40;52.80;;;;;;19890;7064;118978;-84
2022/01/26 02:49:54;;;;;;;157.87;27.00;;;1.40;52.30;;;;;;20751;6720;309612;-82
2022/01/26 02:55:35;;;;;;;30.97;23.67;;;1.60;52.70;;;;;;19616;7092;292654;-83
2022/01/26 03:01:34;;;;;;;116.80;22.43;;;2.10;52.00;;;;;;20949;6720;118319;-82
2022/01/26 03:03:39;;;;;;;28.63;24.33;;;2.00;51.40;;;;;;20661;6781;305504;-82
2022/01/26 03:06:19;;;;;;;53.25;25.12;;;2.00;51.60;;;;;;20718;6728;335031;-82
2022/01/26 03:08:51;;;;;;;91.93;20.97;;;2.20;50.90;;;;;;20979;6707;117355;-83
2022/01/26 03:11:25;;;;;;;46.47;24.40;;;2.20;52.40;;;;;;20774;6710;280569;-82
2022/01/26 03:14:06;;;;;;;174.38;28.90;;;2.10;52.30;;;;;;20697;6785;279824;-85
2022/01/26 03:16:40;;;;;;;59.00;20.37;;;2.50;51.70;;;;;;20906;6726;117803;-83
2022/01/26 03:19:21;;;;;;;33.67;23.67;;;2.30;51.20;;;;;;20678;6742;314886;-84
2022/01/26 03:28:07;;;;;;;30.67;20.10;;;2.40;52.00;;;;;;20889;6743;118266;-83
2022/01/26 03:30:45;;;;;;;84.27;18.57;;;1.80;52.80;;;;;;20909;6739;119196;-83
2022/01/26 03:35:58;;;;;;;30.07;18.10;;;1.80;54.10;;;;;;19863;7074;119627;-83
2022/01/26 03:38:41;;;;;;;38.17;17.00;;;1.80;53.20;;;;;;20466;6828;119136;-83
2022/01/26 03:43:56;;;;;;;21.33;17.07;;;1.60;53.60;;;;;;20200;6793;119918;-83
2022/01/26 03:46:30;;;;;;;19.07;15.83;;;1.50;53.90;;;;;;20911;6731;117168;-85
2022/01/26 03:49:06;;;;;;;20.20;16.33;;;1.40;54.00;;;;;;20539;6815;121707;-83
2022/01/26 03:51:42;;;;;;;37.60;22.40;;;1.40;54.10;;;;;;20701;6737;308482;-83
2022/01/26 03:54:24;;;;;;;98.57;24.57;;;1.60;54.20;;;;;;20642;6757;278063;-84
2022/01/26 03:56:54;;;;;;;185.43;27.13;;;2.00;53.70;;;;;;20539;6772;278837;-84
2022/01/26 03:59:30;;;;;;;76.10;25.00;;;2.70;52.60;;;;;;20603;6766;280865;-83
2022/01/26 04:02:06;;;;;;;120.30;22.27;;;2.70;52.60;;;;;;20826;6770;118010;-83
2022/01/26 04:04:48;;;;;;;61.13;23.57;;;2.60;52.60;;;;;;20731;6742;278817;-83
2022/01/26 04:07:17;;;;;;;101.00;25.57;;;2.60;53.30;;;;;;20615;6750;306698;-83
2022/01/26 04:10:02;;;;;;;;;;;;;;;;;;;;;
2022/01/26 04:12:28;;;;;;;88.30;26.70;;;2.70;51.70;;;;;;20523;6746;276616;-85
2022/01/26 04:15:12;;;;;;;98.03;28.10;;;2.70;51.70;;;;;;20305;6729;308749;-83
2022/01/26 04:17:39;;;;;;;142.57;22.60;;;2.80;51.50;;;;;;20801;6742;121783;-82
2022/01/26 04:20:15;;;;;;;86.10;21.63;;;2.70;51.60;;;;;;20901;6724;117365;-83
2022/01/26 04:23:05;;;;;;;99.90;26.80;;;2.40;53.30;;;;;;20709;6722;284030;-82
2022/01/26 04:25:27;;;;;;;87.77;27.30;;;2.40;53.20;;;;;;20390;6713;282786;-82
2022/01/26 04:28:07;;;;;;;68.07;28.02;;;2.70;52.60;;;;;;20620;6707;306164;-82
2022/01/26 04:30:38;;;;;;;84.00;22.50;;;2.90;52.70;;;;;;20968;6713;117491;-83
2022/01/26 04:33:22;;;;;;;63.97;20.40;;;2.80;52.50;;;;;;20955;6725;120443;-82
2022/01/26 04:35:49;;;;;;;52.37;20.57;;;2.50;52.90;;;;;;21004;6707;118905;-83
2022/01/26 04:38:32;;;;;;;87.27;25.93;;;2.30;53.50;;;;;;20564;6707;310557;-83
2022/01/26 04:44:01;;;;;;;94.97;20.60;;;2.40;54.20;;;;;;20943;6726;117125;-83
2022/01/26 04:46:31;;;;;;;133.23;27.45;;;2.20;54.40;;;;;;20662;6742;307984;-84
2022/01/26 04:49:07;;;;;;;126.05;28.35;;;2.80;54.40;;;;;;20717;6742;335434;-82
2022/01/26 04:51:43;;;;;;;73.93;26.12;;;2.70;54.30;;;;;;20731;6727;288738;-83
2022/01/26 04:54:19;;;;;;;103.27;22.83;;;3.10;53.90;;;;;;20890;6742;116970;-83
2022/01/26 04:56:55;;;;;;;80.50;19.83;;;3.00;53.50;;;;;;20854;6722;118715;-83
2022/01/26 04:59:40;;;;;;;180.00;23.93;;;2.70;53.90;;;;;;20931;6722;120817;-85
2022/01/26 05:02:16;;;;;;;106.67;21.97;;;2.50;54.30;;;;;;20932;6722;117262;-85
2022/01/26 05:04:43;;;;;;;178.77;22.20;;;2.10;54.90;;;;;;20894;6724;117769;-84
2022/01/26 05:07:19;;;;;;;129.80;29.67;;;2.10;54.90;;;;;;20623;6727;306201;-84
2022/01/26 05:09:55;;;;;;;347.67;28.90;;;2.30;55.10;;;;;;20860;6742;121789;-86
2022/01/26 05:12:32;;;;;;;673.87;37.40;;;2.30;54.50;;;;;;20912;6729;117355;-85
2022/01/26 05:15:06;;;;;;;542.77;38.83;;;2.20;55.40;;;;;;20666;6742;277550;-85
2022/01/26 05:17:45;;;;;;;191.80;25.50;;;2.30;54.90;;;;;;20821;6711;117594;-84
2022/01/26 05:20:17;;;;;;;221.83;32.20;;;2.30;54.20;;;;;;20722;6722;304211;-84
2022/01/26 05:22:54;;;;;;;334.90;35.07;;;2.40;54.60;;;;;;20378;6784;276684;-83
2022/01/26 05:25:31;;;;;;;183.00;30.65;;;2.70;54.40;;;;;;20701;6728;337944;-85
2022/01/26 05:28:06;;;;;;;141.07;24.87;;;3.00;54.70;;;;;;20801;6707;117114;-85
2022/01/26 05:30:42;;;;;;;57.53;25.80;;;2.90;53.80;;;;;;20776;6713;329156;-85
2022/01/26 05:33:23;;;;;;;240.55;31.62;;;2.90;53.70;;;;;;20734;6781;304218;-84
2022/01/26 05:35:53;;;;;;;93.03;23.63;;;3.10;53.20;;;;;;20964;6722;117353;-85
2022/01/26 05:38:29;;;;;;;138.23;22.77;;;2.90;52.20;;;;;;20725;6722;117787;-86
2022/01/26 05:41:05;;;;;;;135.57;28.37;;;2.60;53.50;;;;;;20688;6722;281072;-85
2022/01/26 05:43:40;;;;;;;250.03;26.43;;;2.60;53.50;;;;;;20899;6722;117080;-84
2022/01/26 05:46:54;;;;;;;126.03;22.67;;;2.50;53.40;;;;;;20795;6741;124520;-85
2022/01/26 05:48:59;;;;;;;219.83;21.87;;;2.30;53.60;;;;;;20720;6796;119852;-84
2022/01/26 05:51:36;;;;;;;107.28;28.65;;;2.10;53.90;;;;;;20709;6725;335401;-84
2022/01/26 05:54:12;;;;;;;59.00;25.00;;;2.20;54.40;;;;;;20928;6721;118043;-82
2022/01/26 05:56:47;;;;;;;85.47;20.53;;;2.30;54.20;;;;;;20860;6726;117477;-85
2022/01/26 05:59:24;;;;;;;78.30;27.20;;;2.10;54.40;;;;;;20688;6731;340615;-85
2022/01/26 06:02:00;;;;;;;232.80;32.07;;;2.30;55.10;;;;;;20686;6725;305652;-85
2022/01/26 06:04:35;;;;;;;100.53;28.03;;;2.70;54.30;;;;;;20695;6722;310226;-86
2022/01/26 06:07:11;;;;;;;191.67;31.33;;;3.00;53.20;;;;;;20474;6736;307190;-85
2022/01/26 06:09:49;;;;;;;197.53;32.83;;;3.20;52.70;;;;;;20571;6755;282620;-85
2022/01/26 06:12:34;;;;;;;;;;;;;;;;;;;;;
2022/01/26 06:15:01;;;;;;;130.57;24.20;;;2.90;52.70;;;;;;20715;6756;119248;-85
2022/01/26 06:17:36;;;;;;;114.13;20.90;;;2.80;52.70;;;;;;20698;6756;117561;-87
2022/01/26 06:20:13;;;;;;;133.97;30.57;;;2.50;53.20;;;;;;20677;6738;303071;-84
2022/01/26 06:22:49;;;;;;;228.75;34.20;;;2.60;53.20;;;;;;20585;6727;308302;-84
2022/01/26 06:25:30;;;;;;;170.32;31.37;;;2.90;53.30;;;;;;20695;6726;279298;-85
2022/01/26 06:28:01;;;;;;;105.43;30.17;;;3.10;52.60;;;;;;20538;6726;277519;-84
2022/01/26 06:30:36;;;;;;;56.63;27.37;;;3.50;51.20;;;;;;20659;6726;307560;-85
2022/01/26 06:33:12;;;;;;;54.60;27.40;;;3.40;51.10;;;;;;20682;6725;276243;-85
2022/01/26 06:35:47;;;;;;;44.90;21.73;;;3.50;50.90;;;;;;20965;6722;117054;-85
2022/01/26 06:38:24;;;;;;;33.10;19.93;;;3.30;51.10;;;;;;20602;6737;117507;-85
2022/01/26 06:44:45;;;;;;;45.40;26.00;;;2.60;52.60;;;;;;20585;6755;279135;-88
2022/01/26 06:47:31;;;;;;;36.83;20.03;;;2.70;52.80;;;;;;20773;6755;118297;-88
2022/01/26 06:49:47;;;;;;;30.33;19.77;;;2.70;52.60;;;;;;20899;6782;118131;-83
2022/01/26 06:52:22;;;;;;;40.43;20.30;;;2.50;53.00;;;;;;20934;6722;116950;-84
2022/01/26 06:54:58;;;;;;;44.40;20.63;;;2.30;53.50;;;;;;20873;6728;118432;-84
2022/01/26 06:57:34;;;;;;;39.10;26.33;;;2.30;55.40;;;;;;20579;6722;279004;-84
2022/01/26 07:00:10;;;;;;;42.75;26.42;;;2.30;54.60;;;;;;20690;6728;276821;-83
2022/01/26 07:02:45;;;;;;;52.60;24.53;;;2.70;54.00;;;;;;20661;6725;278040;-84
2022/01/26 07:05:21;;;;;;;82.00;24.97;;;3.00;52.80;;;;;;20716;6721;323932;-85
2022/01/26 07:07:56;;;;;;;68.63;21.57;;;3.20;52.10;;;;;;20729;6724;117882;-83
2022/01/26 07:10:32;;;;;;;90.97;19.67;;;3.10;52.00;;;;;;20836;6744;155560;-84
2022/01/26 07:13:08;;;;;;;34.27;17.33;;;2.80;52.50;;;;;;20922;6727;123367;-85
2022/01/26 07:21:34;;;;;;;74.97;19.53;;;2.40;53.20;;;;;;20936;6722;117235;-86
2022/01/26 07:24:10;;;;;;;140.93;27.23;;;2.30;52.60;;;;;;20722;6722;338465;-85
2022/01/26 07:26:50;;;;;;;127.07;30.97;;;2.40;53.10;;;;;;20633;6728;309734;-85
2022/01/26 07:29:23;;;;;;;55.63;20.70;;;2.70;53.10;;;;;;20917;6722;117320;-86
2022/01/26 07:31:58;;;;;;;86.70;21.87;;;2.70;52.90;;;;;;20895;6727;121067;-86
2022/01/26 07:34:33;;;;;;;42.37;18.73;;;2.40;53.40;;;;;;20889;6726;117417;-86
2022/01/26 07:37:13;;;;;;;58.22;25.92;;;2.40;54.10;;;;;;20589;6725;339749;-86
2022/01/26 07:39:59;;;;;;;59.77;20.40;;;2.40;54.10;;;;;;20936;6722;116905;-84
2022/01/26 07:42:21;;;;;;;60.13;24.77;;;2.40;53.70;;;;;;20644;6742;275152;-85
2022/01/26 07:45:02;;;;;;;73.97;20.73;;;2.60;53.60;;;;;;20908;6728;119242;-94
2022/01/26 07:47:33;;;;;;;67.60;22.67;;;2.60;53.60;;;;;;20844;6722;117318;-85
2022/01/26 07:50:11;;;;;;;54.97;21.07;;;2.40;53.80;;;;;;20920;6728;118623;-85
2022/01/26 07:52:44;;;;;;;71.87;21.37;;;2.30;54.20;;;;;;20939;6725;122229;-82
2022/01/26 07:55:21;;;;;;;52.13;18.43;;;2.20;54.50;;;;;;20940;6722;117413;-84
2022/01/26 07:57:56;;;;;;;38.63;18.10;;;2.10;54.70;;;;;;20760;6728;117613;-84
2022/01/26 08:00:30;;;;;;;121.17;21.50;;;2.00;54.90;;;;;;20930;6722;116699;-83
2022/01/26 08:03:06;;;;;;;185.50;23.03;;;2.00;55.00;;;;;;20899;6724;117942;-85
2022/01/26 08:05:41;;;;;;;94.37;20.43;;;1.90;55.10;;;;;;20851;6744;118269;-86
2022/01/26 08:08:18;;;;;;;136.60;29.03;;;2.10;55.30;;;;;;20497;6731;293809;-85
2022/01/26 08:10:53;;;;;;;110.60;23.00;;;2.10;55.30;;;;;;20895;6731;117398;-86
2022/01/26 08:13:29;;;;;;;161.77;24.97;;;2.20;54.80;;;;;;20916;6728;117303;-86
2022/01/26 08:16:05;;;;;;;39.63;19.77;;;2.20;54.90;;;;;;20960;6716;117382;-86
2022/01/26 08:18:40;;;;;;;117.30;29.23;;;2.10;55.00;;;;;;20570;6757;307662;-86
2022/01/26 08:21:18;;;;;;;48.27;21.37;;;2.30;54.80;;;;;;20805;6755;117711;-86
2022/01/26 08:23:51;;;;;;;30.23;19.37;;;2.40;54.30;;;;;;20941;6722;117409;-85
2022/01/26 08:26:37;;;;;;;77.77;21.50;;;2.30;54.40;;;;;;20855;6742;117333;-87
2022/01/26 08:29:04;;;;;;;75.10;26.73;;;2.20;54.50;;;;;;20693;6742;306215;-85
2022/01/26 08:31:38;;;;;;;42.57;20.27;;;2.30;54.00;;;;;;20931;6742;117047;-85
2022/01/26 08:34:14;;;;;;;26.40;18.90;;;2.40;53.60;;;;;;20879;6743;117274;-87
2022/01/26 08:36:50;;;;;;;32.43;24.10;;;2.30;53.30;;;;;;20682;6727;336200;-88
2022/01/26 08:39:25;;;;;;;44.95;26.15;;;2.30;53.30;;;;;;20737;6785;275395;-86
2022/01/26 08:42:02;;;;;;;35.00;20.40;;;2.70;52.60;;;;;;20960;6726;118682;-85
2022/01/26 08:48:14;;;;;;;29.73;18.97;;;2.30;53.50;;;;;;20778;6725;117509;-86
2022/01/26 08:50:49;;;;;;;44.83;20.50;;;2.20;53.30;;;;;;20894;6725;117373;-86
2022/01/26 08:53:25;;;;;;;34.13;25.33;;;2.10;53.80;;;;;;20716;6722;294611;-86
2022/01/26 08:56:01;;;;;;;53.67;27.00;;;2.40;54.30;;;;;;20703;6722;306884;-86
2022/01/26 08:58:46;;;;;;;;;;;;;;;;;;;;;
2022/01/26 09:01:22;;;;;;;;;;;;;;;;;;;;;
2022/01/26 09:03:47;;;;;;;33.00;27.20;;;3.50;51.50;;;;;;20711;6729;301825;-86
2022/01/26 09:06:23;;;;;;;32.20;21.13;;;3.80;51.00;;;;;;20951;6729;117755;-85
2022/01/26 09:09:04;;;;;;;28.37;20.77;;;3.60;50.70;;;;;;20754;6743;117491;-88
2022/01/26 09:11:48;;;;;;;29.93;21.33;;;3.30;51.20;;;;;;20960;6722;117102;-95
2022/01/26 09:14:26;;;;;;;27.10;19.13;;;3.10;51.90;;;;;;20993;6707;116093;-85
2022/01/26 09:16:58;;;;;;;31.83;25.93;;;3.00;52.40;;;;;;20717;6707;313730;-86
2022/01/26 09:19:34;;;;;;;38.97;22.17;;;3.10;52.30;;;;;;20873;6742;121590;-84
2022/01/26 09:22:13;;;;;;;30.17;19.80;;;3.10;52.00;;;;;;20956;6711;120061;-85
2022/01/26 09:24:49;;;;;;;29.80;19.63;;;3.00;52.30;;;;;;20921;6725;119301;-85
2022/01/26 09:27:25;;;;;;;39.60;26.23;;;3.00;52.30;;;;;;20660;6722;301351;-85
2022/01/26 09:30:01;;;;;;;41.60;28.93;;;3.00;52.30;;;;;;20712;6726;311802;-85
2022/01/26 09:32:48;;;;;;;;;;;;;;;;;;;;;
2022/01/26 09:35:15;;;;;;;37.60;23.27;;;3.60;51.20;;;;;;20764;6755;117882;-84
2022/01/26 09:37:52;;;;;;;41.53;21.93;;;3.60;51.20;;;;;;20807;6736;117452;-88
2022/01/26 09:40:28;;;;;;;33.80;21.90;;;3.30;51.40;;;;;;20984;6707;116840;-86
2022/01/26 09:43:03;;;;;;;37.58;29.90;;;3.10;51.90;;;;;;20655;6725;334075;-86
2022/01/26 09:45:39;;;;;;;39.27;28.43;;;3.20;52.30;;;;;;20592;6759;306062;-86
2022/01/26 09:48:24;;;;;;;;;;;;;;;;;;;;;
2022/01/26 09:50:54;;;;;;;35.57;28.10;;;3.50;51.40;;;;;;20580;6759;424506;-86
2022/01/26 09:53:32;;;;;;;32.40;22.87;;;3.50;51.40;;;;;;20912;6729;116983;-86
2022/01/26 09:56:04;;;;;;;28.57;21.43;;;3.50;51.40;;;;;;20834;6761;117156;-86
2022/01/26 09:58:40;;;;;;;33.87;21.83;;;3.30;51.80;;;;;;20583;6832;118171;-87
2022/01/26 10:01:16;;;;;;;36.77;28.70;;;3.30;52.50;;;;;;20604;6775;277348;-87
2022/01/26 10:03:53;;;;;;;43.97;30.33;;;3.20;52.50;;;;;;20692;6733;340880;-84
2022/01/26 10:06:29;;;;;;;36.20;25.30;;;3.60;51.70;;;;;;20839;6740;117023;-88
2022/01/26 10:09:28;;;;;;;33.43;23.70;;;3.60;51.40;;;;;;20955;6707;119105;-91
2022/01/26 10:17:34;;;;;;;33.47;25.20;;;3.80;50.80;;;;;;20896;6707;117321;-84
2022/01/26 10:20:07;;;;;;;34.00;22.30;;;3.70;50.80;;;;;;20939;6707;117030;-83
2022/01/26 10:22:42;;;;;;;33.90;27.93;;;3.50;51.40;;;;;;20738;6713;304230;-85
2022/01/26 10:25:18;;;;;;;41.67;30.53;;;3.60;51.60;;;;;;20756;6707;319911;-86
2022/01/26 10:27:54;;;;;;;39.47;30.60;;;3.80;50.90;;;;;;20607;6707;278648;-86
2022/01/26 10:30:30;;;;;;;47.07;36.83;;;4.10;50.20;;;;;;20756;6710;277385;-85
2022/01/26 10:33:09;;;;;;;34.37;24.40;;;4.30;49.80;;;;;;20970;6707;118239;-86
2022/01/26 10:35:44;;;;;;;31.37;23.03;;;4.20;49.70;;;;;;20951;6713;119862;-86
2022/01/26 10:38:53;;;;;;;32.53;22.40;;;3.80;50.30;;;;;;20567;6707;67510;-85
2022/01/26 10:41:19;;;;;;;39.50;31.70;;;3.60;51.00;;;;;;20641;6767;311996;-85
2022/01/26 10:43:57;;;;;;;33.30;24.87;;;3.70;51.10;;;;;;20961;6707;117260;-85
2022/01/26 10:46:34;;;;;;;32.23;23.50;;;3.80;50.90;;;;;;20882;6722;120798;-85
2022/01/26 10:49:09;;;;;;;40.57;28.90;;;3.60;51.10;;;;;;20919;6722;117227;-85
2022/01/26 10:54:37;;;;;;;37.75;30.37;;;3.40;51.70;;;;;;20630;6782;334511;-85
2022/01/26 10:57:13;;;;;;;38.23;32.53;;;3.50;51.40;;;;;;20603;6722;309339;-85
2022/01/26 10:59:59;;;;;;;38.10;31.93;;;3.90;50.70;;;;;;20687;6742;306165;-86
2022/01/26 11:02:34;;;;;;;37.47;31.83;;;4.20;50.20;;;;;;20718;6725;276192;-86
2022/01/26 11:05:11;;;;;;;43.00;32.03;;;4.40;49.60;;;;;;20708;6722;280099;-86
2022/01/26 11:07:46;;;;;;;41.20;32.47;;;4.60;49.30;;;;;;20510;6787;311441;-83
2022/01/26 11:10:24;;;;;;;40.27;32.43;;;4.70;49.10;;;;;;20680;6781;303731;-87
2022/01/26 11:12:57;;;;;;;36.47;30.90;;;4.90;48.50;;;;;;20551;6722;305970;-85
2022/01/26 11:15:33;;;;;;;30.40;24.60;;;4.90;48.30;;;;;;20121;6796;67121;-85
2022/01/26 11:18:09;;;;;;;31.87;24.27;;;4.70;48.60;;;;;;20714;6725;122601;-88
2022/01/26 11:20:51;;;;;;;29.43;23.60;;;4.40;49.30;;;;;;20677;6817;118390;-87
2022/01/26 11:23:32;;;;;;;30.33;23.27;;;4.10;49.90;;;;;;20864;6740;117002;-88
2022/01/26 11:46:08;;;;;;;34.70;25.93;;;5.00;48.50;;;;;;20858;6802;121838;-87
2022/01/26 11:48:33;;;;;;;34.05;27.08;;;4.60;49.00;;;;;;20845;6782;117664;-87
2022/01/26 11:50:59;;;;;;;38.92;32.10;;;4.40;49.40;;;;;;20633;6782;314891;-85
2022/01/26 11:53:24;;;;;;;34.97;27.17;;;4.40;49.70;;;;;;20662;6853;117444;-84
2022/01/26 11:55:57;;;;;;;34.07;26.00;;;4.40;49.40;;;;;;20686;6853;118292;-88
2022/01/26 11:58:17;;;;;;;39.57;33.90;;;4.30;49.90;;;;;;20457;6853;338549;-85
2022/01/26 12:00:54;;;;;;;38.97;33.80;;;4.40;50.50;;;;;;20434;6853;338424;-86
2022/01/26 12:03:30;;;;;;;41.53;34.57;;;4.70;50.50;;;;;;20355;6854;281005;-83
2022/01/26 12:05:57;;;;;;;39.90;28.10;;;5.00;49.30;;;;;;20683;6854;121810;-86
2022/01/26 12:08:28;;;;;;;36.17;26.93;;;4.70;49.80;;;;;;20668;6854;117875;-85
2022/01/26 12:10:53;;;;;;;40.53;32.77;;;4.70;49.80;;;;;;20457;6854;307751;-85
2022/01/26 12:13:22;;;;;;;36.70;27.80;;;4.70;49.60;;;;;;20706;6854;121696;-85
2022/01/26 12:15:53;;;;;;;54.75;46.33;;;4.60;49.30;;;;;;20507;6854;307699;-85
2022/01/26 12:18:22;;;;;;;45.83;39.17;;;4.70;49.50;;;;;;20509;6854;278671;-89
2022/01/26 12:46:52;;;;;;;36.57;26.97;;;5.00;49.50;;;;;;18484;7532;125851;-86
2022/01/26 13:00:25;;;;;;;33.53;25.73;;;5.30;49.10;;;;;;15876;8750;130609;-82
2022/01/26 13:09:27;;;;;;;;;;;;;;;;;;;;;
2022/01/26 13:38:22;;;;;;;38.20;34.00;;;3.50;52.10;;;;;;20641;6786;277892;-84
2022/01/26 13:54:27;;;;;;;32.67;24.10;;;4.60;50.40;;;;;;20639;6845;119221;-80
2022/01/26 13:56:39;;;;;;;36.20;30.17;;;4.30;50.70;;;;;;20409;6833;276992;-81
2022/01/26 13:59:09;;;;;;;37.20;26.37;;;4.40;50.60;;;;;;20692;6846;116400;-81
2022/01/26 14:01:24;;;;;;;33.73;24.20;;;4.40;50.60;;;;;;20694;6845;117527;-84
2022/01/26 14:03:55;;;;;;;39.67;31.47;;;4.20;50.80;;;;;;20508;6833;280912;-82
2022/01/26 14:06:18;;;;;;;37.53;30.77;;;4.30;51.00;;;;;;20460;6833;306079;-81
2022/01/26 14:08:44;;;;;;;35.40;29.23;;;4.60;50.60;;;;;;20477;6833;329220;-80
2022/01/26 14:11:10;;;;;;;35.30;28.93;;;5.10;49.90;;;;;;20508;6834;295558;-87
2022/01/26 14:13:37;;;;;;;33.37;25.57;;;5.10;49.80;;;;;;20748;6834;117368;-84
2022/01/26 14:16:04;;;;;;;29.87;22.67;;;5.00;49.90;;;;;;20786;6833;67884;-86
2022/01/26 14:19:12;;;;;;;32.70;23.87;;;4.70;50.30;;;;;;20746;6833;122307;-83
2022/01/26 14:26:23;;;;;;;36.73;23.97;;;4.00;51.40;;;;;;20789;6833;118096;-82
2022/01/26 14:28:43;;;;;;;34.97;23.93;;;3.90;51.70;;;;;;20737;6833;117733;-82
2022/01/26 14:31:27;;;;;;;34.63;23.83;;;3.70;52.80;;;;;;20781;6833;117950;-82
2022/01/26 14:34:10;;;;;;;37.33;30.00;;;3.70;52.10;;;;;;20421;6861;338386;-82
2022/01/26 14:55:15;;;;;;;40.53;25.57;;;4.10;51.80;;;;;;20715;6851;119442;-82
2022/01/26 15:08:47;;;;;;;42.40;26.43;;;3.40;52.90;;;;;;20717;6857;116392;-84
2022/01/26 15:30:24;;;;;;;40.97;25.77;;;3.30;54.30;;;;;;20726;6853;117502;-84
2022/01/26 15:43:36;;;;;;;48.33;30.80;;;2.70;54.80;;;;;;20511;6853;278931;-85
2022/01/26 15:48:50;;;;;;;43.07;23.60;;;3.40;54.60;;;;;;20623;6852;118973;-85
2022/01/26 15:51:10;;;;;;;43.27;20.57;;;3.40;54.70;;;;;;20659;6852;119968;-86
2022/01/26 16:35:11;;;;;;;44.57;27.40;;;3.00;56.80;;;;;;20518;6851;278347;-85
2022/01/26 18:07:09;;;;;;;81.90;35.43;;;3.00;56.20;;;;;;20572;6837;306007;-81
2022/01/26 18:16:29;;;;;;;46.20;22.23;;;3.30;56.10;;;;;;20771;6837;117268;-82
2022/01/26 18:32:27;;;;;;;46.87;25.57;;;3.70;56.50;;;;;;20759;6837;117033;-82
2022/01/26 18:40:31;;;;;;;65.27;33.13;;;3.60;55.80;;;;;;20758;6837;116395;-82
2022/01/26 18:51:09;;;;;;;55.50;22.33;;;3.10;57.10;;;;;;20671;6837;118475;-83
2022/01/26 18:53:34;;;;;;;76.28;26.05;;;3.10;56.70;;;;;;20719;6837;117542;-82
2022/01/26 18:56:00;;;;;;;88.60;32.40;;;3.00;56.80;;;;;;20549;6837;340316;-82
2022/01/26 18:58:26;;;;;;;148.30;36.53;;;3.10;57.00;;;;;;20779;6837;116381;-82
2022/01/26 19:00:51;;;;;;;60.07;23.73;;;3.10;56.60;;;;;;20740;6837;117691;-82
2022/01/26 19:03:18;;;;;;;116.70;30.92;;;3.00;56.90;;;;;;20782;6837;117064;-82
2022/01/26 19:05:44;;;;;;;135.80;35.65;;;2.90;57.40;;;;;;20569;6837;307679;-83
2022/01/26 19:08:08;;;;;;;48.27;24.50;;;3.10;57.60;;;;;;20779;6837;117618;-82
2022/01/26 19:10:35;;;;;;;62.13;30.02;;;3.10;57.10;;;;;;20554;6837;306908;-83
2022/01/26 19:13:00;;;;;;;54.10;23.37;;;3.30;57.20;;;;;;20599;6837;117750;-82
2022/01/26 19:15:30;;;;;;;99.60;37.15;;;3.30;56.90;;;;;;20561;6837;306982;-83
2022/01/26 19:17:58;;;;;;;64.30;32.03;;;3.50;56.90;;;;;;20764;6837;121452;-83
2022/01/26 19:22:58;;;;;;;92.10;35.40;;;3.60;56.40;;;;;;20526;6837;336717;-83
2022/01/26 19:25:18;;;;;;;71.87;26.40;;;3.80;55.40;;;;;;20736;6837;116409;-83
2022/01/26 19:28:10;;;;;;;64.80;25.50;;;3.70;54.90;;;;;;20754;6837;124243;-83
2022/01/26 19:43:38;;;;;;;57.17;31.17;;;3.50;56.00;;;;;;20567;6837;310668;-87
2022/01/26 19:51:11;;;;;;;49.53;26.13;;;3.70;55.40;;;;;;20775;6837;116961;-84
2022/01/26 19:53:36;;;;;;;46.77;24.53;;;3.60;55.10;;;;;;20757;6837;117232;-85
2022/01/26 19:56:01;;;;;;;46.85;23.05;;;3.40;55.80;;;;;;20730;6837;117119;-84
2022/01/26 19:58:27;;;;;;;58.47;29.35;;;3.20;56.10;;;;;;20549;6837;311098;-84
2022/01/26 20:00:53;;;;;;;47.15;24.00;;;3.30;56.40;;;;;;20746;6837;116543;-84
2022/01/26 20:03:18;;;;;;;65.73;25.60;;;3.40;56.10;;;;;;20766;6837;117344;-85
2022/01/26 20:05:44;;;;;;;51.20;24.20;;;3.20;56.40;;;;;;20763;6837;118091;-83
2022/01/26 20:09:10;;;;;;;57.60;30.92;;;3.10;56.70;;;;;;20562;6837;311576;-84
2022/01/26 20:10:42;;;;;;;66.28;31.83;;;3.30;57.00;;;;;;20147;6837;305390;-84
2022/01/26 20:13:13;;;;;;;46.13;23.90;;;3.60;56.30;;;;;;20748;6837;121323;-86
2022/01/26 20:15:31;;;;;;;62.05;36.30;;;3.70;55.80;;;;;;20534;6837;323431;-84
2022/01/26 20:17:57;;;;;;;43.83;22.23;;;3.70;55.60;;;;;;20774;6837;117052;-84
2022/01/26 20:20:24;;;;;;;41.03;22.03;;;3.70;55.20;;;;;;20778;6837;116590;-84
2022/01/26 20:22:48;;;;;;;53.90;30.53;;;3.50;55.50;;;;;;20547;6837;311994;-84
2022/01/26 20:25:16;;;;;;;53.07;30.93;;;3.50;56.00;;;;;;20563;6837;306926;-84
2022/01/26 20:27:39;;;;;;;56.30;30.93;;;3.80;55.20;;;;;;20545;6837;306524;-85
2022/01/26 20:30:15;;;;;;;53.08;30.90;;;4.00;54.40;;;;;;20565;6837;336182;-85
2022/01/26 20:32:33;;;;;;;69.37;34.70;;;4.30;54.20;;;;;;20497;6837;277720;-86
2022/01/26 20:34:59;;;;;;;58.50;31.57;;;4.40;53.70;;;;;;20557;6837;278183;-86
2022/01/26 20:37:25;;;;;;;60.70;32.90;;;4.50;53.60;;;;;;20555;6837;310217;-84
2022/01/26 20:39:52;;;;;;;61.07;32.03;;;4.60;53.40;;;;;;20554;6837;306972;-84